createdAt,value
2019-06-01T09:43:41.162Z,19.82
2019-06-01T09:44:16.854Z,19.89
2019-06-01T09:45:16.781Z,19.94
2019-06-01T09:46:16.704Z,19.94
2019-06-01T09:47:16.689Z,19.86
2019-06-01T09:48:16.556Z,19.96
2019-06-01T09:49:16.480Z,19.95
2019-06-01T09:50:16.404Z,19.96
2019-06-01T09:51:16.331Z,19.89
2019-06-01T09:52:16.283Z,19.95
2019-06-01T09:53:16.185Z,19.91
2019-06-01T09:54:16.105Z,19.99
2019-06-01T09:55:16.033Z,19.99
2019-06-01T09:56:15.949Z,20.09
2019-06-01T09:57:23.534Z,20.13
2019-06-01T09:59:20.204Z,20.11
2019-06-01T10:00:20.117Z,20.09
2019-06-01T10:02:24.418Z,20.09
2019-06-01T10:03:24.340Z,20.18
2019-06-01T10:05:28.659Z,20.04
2019-06-01T10:06:28.573Z,20.06
2019-06-01T10:08:21.829Z,20.10
2019-06-01T10:09:21.749Z,20.16
2019-06-01T10:11:26.065Z,20.18
2019-06-01T10:12:25.969Z,20.19
2019-06-01T10:14:30.287Z,20.26
2019-06-01T10:15:30.215Z,20.19
2019-06-01T10:17:35.122Z,20.24
2019-06-01T10:18:35.315Z,20.26
2019-06-01T10:19:34.646Z,20.29
2019-06-01T10:20:34.801Z,20.32
2019-06-01T10:21:34.205Z,20.34
2019-06-01T10:22:35.096Z,20.32
2019-06-01T10:23:34.580Z,20.19
2019-06-01T10:24:35.121Z,20.37
2019-06-01T10:25:34.457Z,20.36
2019-06-01T10:26:34.370Z,20.47
2019-06-01T10:27:34.504Z,20.60
2019-06-01T10:28:33.692Z,20.72
2019-06-01T10:29:34.627Z,20.77
2019-06-01T10:30:33.935Z,20.81
2019-06-01T10:31:35.253Z,20.74
2019-06-01T10:32:42.129Z,20.75
2019-06-01T10:34:37.805Z,21.05
2019-06-01T10:35:38.926Z,21.02
2019-06-01T10:37:41.938Z,21.14
2019-06-01T10:38:41.861Z,21.11
2019-06-01T10:40:46.183Z,21.20
2019-06-01T10:41:46.099Z,21.22
2019-06-01T10:43:50.411Z,21.25
2019-06-01T10:44:50.334Z,21.33
2019-06-01T10:46:54.680Z,21.39
2019-06-01T10:47:54.561Z,21.50
2019-06-01T10:49:58.873Z,21.67
2019-06-01T10:50:58.797Z,21.60
2019-06-01T10:52:52.044Z,21.66
2019-06-01T10:53:51.960Z,21.72
2019-06-01T10:55:56.276Z,21.66
2019-06-01T10:56:56.207Z,21.70
2019-06-01T10:59:00.795Z,21.72
2019-06-01T11:00:00.415Z,21.69
2019-06-01T11:02:04.740Z,21.67
2019-06-01T11:03:04.654Z,21.64
2019-06-01T11:05:08.968Z,21.77
2019-06-01T11:06:08.883Z,21.73
2019-06-01T11:08:13.189Z,21.70
2019-06-01T11:09:13.113Z,21.75
2019-06-01T11:11:17.430Z,21.82
2019-06-01T11:12:17.342Z,21.83
2019-06-01T11:13:17.270Z,21.83
2019-06-01T11:14:17.197Z,21.95
2019-06-01T11:15:17.127Z,21.93
2019-06-01T11:16:17.054Z,22.00
2019-06-01T11:17:16.979Z,21.99
2019-06-01T11:18:16.907Z,22.11
2019-06-01T11:19:16.835Z,22.15
2019-06-01T11:20:16.764Z,22.17
2019-06-01T11:21:16.681Z,22.14
2019-06-01T11:22:16.616Z,22.26
2019-06-01T11:23:16.539Z,22.17
2019-06-01T11:24:16.473Z,22.23
2019-06-01T11:25:16.398Z,22.15
2019-06-01T11:26:16.338Z,22.29
2019-06-01T11:27:16.253Z,22.35
2019-06-01T11:28:16.180Z,22.45
2019-06-01T11:29:16.110Z,22.36
2019-06-01T11:30:16.039Z,22.35
2019-06-01T11:31:15.961Z,22.29
2019-06-01T11:32:15.892Z,22.32
2019-06-01T11:33:15.818Z,22.28
2019-06-01T11:34:15.748Z,22.23
2019-06-01T11:35:15.676Z,22.25
2019-06-01T11:36:15.618Z,22.17
2019-06-01T11:37:16.011Z,22.20
2019-06-01T11:38:15.460Z,22.28
2019-06-01T11:39:15.388Z,22.26
2019-06-01T11:40:15.316Z,22.29
2019-06-01T11:41:18.540Z,22.29
2019-06-01T11:42:15.175Z,22.33
2019-06-01T11:43:15.109Z,22.47
2019-06-01T11:44:15.031Z,22.47
2019-06-01T11:45:14.951Z,22.47
2019-06-01T11:46:14.879Z,22.50
2019-06-01T11:47:14.972Z,22.63
2019-06-01T11:48:14.741Z,22.60
2019-06-01T11:49:14.671Z,22.60
2019-06-01T11:50:14.594Z,22.70
2019-06-01T11:51:14.531Z,22.72
2019-06-01T11:52:14.457Z,22.70
2019-06-01T11:53:14.388Z,22.84
2019-06-01T11:54:14.314Z,22.80
2019-06-01T11:55:14.243Z,22.94
2019-06-01T11:56:14.170Z,22.80
2019-06-01T11:57:14.100Z,22.94
2019-06-01T11:58:14.043Z,22.91
2019-06-01T11:59:13.959Z,23.05
2019-06-01T12:00:13.886Z,23.05
2019-06-01T12:01:13.814Z,23.13
2019-06-01T12:02:13.741Z,23.23
2019-06-01T12:03:13.669Z,23.21
2019-06-01T12:04:13.606Z,23.32
2019-06-01T12:05:13.581Z,23.31
2019-06-01T12:06:13.459Z,23.40
2019-06-01T12:07:17.690Z,23.41
2019-06-01T12:08:13.323Z,23.51
2019-06-01T12:09:13.253Z,23.56
2019-06-01T12:10:13.187Z,23.46
2019-06-01T12:11:13.112Z,23.48
2019-06-01T12:12:13.045Z,23.39
2019-06-01T12:13:12.975Z,23.37
2019-06-01T12:14:12.906Z,23.31
2019-06-01T12:15:12.858Z,23.27
2019-06-01T12:16:12.767Z,23.23
2019-06-01T12:17:12.695Z,23.24
2019-06-01T12:18:12.625Z,23.34
2019-06-01T12:19:12.559Z,23.21
2019-06-01T12:20:12.491Z,23.24
2019-06-01T12:21:12.412Z,23.39
2019-06-01T12:22:12.348Z,23.54
2019-06-01T12:23:12.282Z,24.01
2019-06-01T12:24:12.258Z,24.35
2019-06-01T12:25:12.141Z,24.58
2019-06-01T12:26:12.074Z,24.66
2019-06-01T12:27:12.005Z,24.73
2019-06-01T12:28:11.936Z,25.08
2019-06-01T12:29:11.872Z,25.36
2019-06-01T12:30:11.807Z,25.77
2019-06-01T12:31:11.739Z,25.99
2019-06-01T12:32:11.680Z,26.29
2019-06-01T12:33:11.613Z,26.53
2019-06-01T12:34:11.546Z,26.77
2019-06-01T12:35:11.486Z,26.99
2019-06-01T12:36:11.426Z,27.35
2019-06-01T12:37:11.361Z,27.58
2019-06-01T12:38:11.299Z,27.83
2019-06-01T12:39:11.241Z,28.04
2019-06-01T12:40:11.186Z,28.26
2019-06-01T12:41:11.118Z,28.56
2019-06-01T12:42:11.254Z,28.82
2019-06-01T12:43:11.001Z,29.01
2019-06-01T12:44:10.946Z,29.29
2019-06-01T12:45:10.894Z,29.14
2019-06-01T12:46:10.830Z,29.17
2019-06-01T12:47:10.771Z,29.31
2019-06-01T12:48:10.741Z,29.41
2019-06-01T12:49:10.660Z,29.54
2019-06-01T12:50:10.645Z,29.65
2019-06-01T12:51:10.542Z,29.81
2019-06-01T12:52:10.485Z,29.81
2019-06-01T12:53:10.427Z,30.05
2019-06-01T12:54:10.376Z,30.28
2019-06-01T12:55:10.317Z,30.35
2019-06-01T12:56:10.262Z,30.53
2019-06-01T12:57:10.199Z,30.50
2019-06-01T12:58:10.159Z,30.37
2019-06-01T12:59:10.096Z,30.50
2019-06-01T13:00:10.037Z,30.59
2019-06-01T13:01:09.981Z,30.62
2019-06-01T13:02:09.935Z,30.54
2019-06-01T13:03:09.874Z,30.77
2019-06-01T13:04:09.812Z,30.85
2019-06-01T13:05:09.758Z,30.55
2019-06-01T13:06:09.700Z,30.02
2019-06-01T13:07:09.644Z,29.51
2019-06-01T13:08:09.587Z,29.24
2019-06-01T13:09:09.530Z,28.86
2019-06-01T13:10:09.474Z,28.49
2019-06-01T13:11:09.413Z,28.14
2019-06-01T13:12:09.359Z,27.90
2019-06-01T13:13:09.294Z,27.70
2019-06-01T13:14:09.242Z,27.44
2019-06-01T13:15:09.171Z,27.32
2019-06-01T13:16:09.111Z,27.10
2019-06-01T13:17:09.057Z,26.85
2019-06-01T13:18:08.987Z,26.92
2019-06-01T13:19:08.922Z,27.25
2019-06-01T13:20:08.861Z,27.89
2019-06-01T13:21:08.802Z,28.11
2019-06-01T13:22:08.732Z,28.08
2019-06-01T13:23:08.670Z,27.92
2019-06-01T13:24:08.605Z,28.14
2019-06-01T13:25:08.540Z,28.84
2019-06-01T13:26:08.475Z,29.45
2019-06-01T13:27:08.414Z,30.03
2019-06-01T13:28:08.365Z,30.55
2019-06-01T13:29:08.282Z,31.02
2019-06-01T13:30:08.216Z,31.17
2019-06-01T13:31:08.153Z,31.31
2019-06-01T13:32:08.090Z,31.40
2019-06-01T13:33:08.022Z,31.40
2019-06-01T13:34:07.958Z,31.39
2019-06-01T13:35:07.901Z,31.20
2019-06-01T13:36:07.827Z,31.09
2019-06-01T13:37:07.755Z,31.03
2019-06-01T13:38:12.080Z,30.92
2019-06-01T13:39:07.630Z,30.85
2019-06-01T13:40:07.679Z,30.62
2019-06-01T13:41:07.494Z,30.40
2019-06-01T13:42:07.448Z,30.28
2019-06-01T13:43:07.364Z,30.10
2019-06-01T13:44:07.307Z,29.90
2019-06-01T13:45:07.236Z,29.53
2019-06-01T13:46:07.169Z,29.26
2019-06-01T13:47:07.106Z,29.05
2019-06-01T13:48:07.036Z,28.93
2019-06-01T13:49:06.970Z,28.72
2019-06-01T13:50:07.194Z,28.62
2019-06-01T13:51:06.840Z,28.54
2019-06-01T13:52:06.772Z,28.45
2019-06-01T13:53:06.705Z,28.37
2019-06-01T13:54:06.641Z,28.39
2019-06-01T13:55:06.575Z,28.51
2019-06-01T13:56:06.504Z,28.42
2019-06-01T13:57:06.442Z,28.48
2019-06-01T13:58:06.378Z,28.41
2019-06-01T13:59:06.311Z,28.22
2019-06-01T14:00:06.244Z,28.26
2019-06-01T14:01:06.178Z,28.12
2019-06-01T14:02:06.107Z,28.05
2019-06-01T14:03:06.038Z,27.92
2019-06-01T14:04:05.979Z,27.93
2019-06-01T14:05:05.928Z,27.96
2019-06-01T14:06:05.847Z,28.33
2019-06-01T14:07:05.828Z,28.74
2019-06-01T14:08:05.711Z,29.14
2019-06-01T14:09:05.651Z,29.50
2019-06-01T14:10:05.587Z,29.73
2019-06-01T14:11:05.523Z,30.12
2019-06-01T14:12:05.460Z,30.48
2019-06-01T14:13:05.640Z,30.72
2019-06-01T14:14:05.332Z,30.99
2019-06-01T14:15:05.321Z,31.09
2019-06-01T14:16:05.210Z,31.17
2019-06-01T14:17:05.151Z,31.31
2019-06-01T14:18:05.081Z,31.52
2019-06-01T14:19:06.843Z,31.52
2019-06-01T14:20:04.962Z,31.77
2019-06-01T14:21:04.914Z,31.77
2019-06-01T14:22:04.848Z,31.56
2019-06-01T14:23:04.786Z,31.61
2019-06-01T14:24:04.731Z,31.92
2019-06-01T14:25:12.749Z,32.04
2019-06-01T14:26:04.607Z,32.30
2019-06-01T14:27:04.550Z,32.37
2019-06-01T14:28:04.567Z,32.45
2019-06-01T14:29:04.426Z,32.51
2019-06-01T14:30:04.373Z,32.78
2019-06-01T14:31:04.324Z,32.97
2019-06-01T14:32:04.258Z,33.08
2019-06-01T14:33:04.197Z,33.31
2019-06-01T14:34:04.132Z,33.39
2019-06-01T14:35:04.081Z,33.53
2019-06-01T14:36:04.021Z,33.47
2019-06-01T14:37:03.964Z,33.68
2019-06-01T14:38:03.911Z,33.81
2019-06-01T14:39:03.856Z,33.94
2019-06-01T14:40:03.791Z,34.05
2019-06-01T14:41:03.732Z,34.17
2019-06-01T14:42:03.679Z,34.17
2019-06-01T14:43:03.621Z,34.29
2019-06-01T14:44:03.559Z,34.40
2019-06-01T14:45:03.506Z,34.48
2019-06-01T14:46:03.449Z,34.61
2019-06-01T14:47:05.980Z,34.52
2019-06-01T14:48:03.341Z,34.73
2019-06-01T14:49:03.279Z,34.58
2019-06-01T14:50:03.239Z,34.58
2019-06-01T14:51:03.166Z,34.70
2019-06-01T14:52:03.156Z,35.07
2019-06-01T14:53:03.058Z,35.33
2019-06-01T14:54:03.002Z,35.66
2019-06-01T14:55:02.944Z,35.68
2019-06-01T14:56:03.007Z,35.98
2019-06-01T14:57:02.830Z,35.95
2019-06-01T14:58:02.771Z,35.93
2019-06-01T14:59:02.720Z,35.83
2019-06-01T15:00:02.668Z,35.70
2019-06-01T15:01:02.612Z,35.70
2019-06-01T15:02:02.558Z,35.93
2019-06-01T15:03:02.503Z,35.92
2019-06-01T15:04:02.445Z,35.97
2019-06-01T15:05:02.390Z,35.85
2019-06-01T15:06:02.332Z,35.64
2019-06-01T15:07:02.279Z,35.37
2019-06-01T15:08:02.230Z,35.22
2019-06-01T15:09:17.993Z,35.22
2019-06-01T15:10:02.113Z,35.05
2019-06-01T15:11:02.057Z,35.23
2019-06-01T15:12:02.036Z,35.33
2019-06-01T15:13:03.385Z,35.49
2019-06-01T15:14:01.892Z,35.66
2019-06-01T15:15:02.944Z,35.64
2019-06-01T15:16:02.059Z,35.89
2019-06-01T15:17:02.341Z,36.08
2019-06-01T15:18:05.084Z,35.76
2019-06-01T15:19:02.123Z,35.66
2019-06-01T15:20:02.697Z,35.61
2019-06-01T15:21:02.201Z,35.98
2019-06-01T15:22:03.358Z,36.04
2019-06-01T15:23:03.434Z,36.14
2019-06-01T15:24:02.349Z,36.18
2019-06-01T15:25:03.448Z,36.39
2019-06-01T15:26:01.211Z,36.30
2019-06-01T15:27:01.188Z,36.18
2019-06-01T15:28:01.097Z,36.27
2019-06-01T15:29:01.038Z,36.23
2019-06-01T15:30:00.986Z,36.09
2019-06-01T15:31:00.927Z,36.36
2019-06-01T15:32:02.157Z,36.46
2019-06-01T15:33:00.811Z,36.46
2019-06-01T15:34:01.815Z,36.43
2019-06-01T15:35:00.693Z,36.47
2019-06-01T15:36:01.854Z,36.31
2019-06-01T15:37:01.767Z,36.30
2019-06-01T15:38:02.160Z,36.20
2019-06-01T15:39:00.465Z,36.12
2019-06-01T15:40:00.407Z,36.02
2019-06-01T15:41:00.598Z,36.04
2019-06-01T15:42:01.349Z,36.02
2019-06-01T15:43:01.417Z,36.04
2019-06-01T15:44:01.239Z,36.08
2019-06-01T15:45:00.105Z,36.14
2019-06-01T15:46:00.041Z,36.27
2019-06-01T15:46:59.983Z,36.37
2019-06-01T15:47:59.921Z,36.37
2019-06-01T15:49:00.205Z,36.30
2019-06-01T15:50:00.097Z,36.31
2019-06-01T15:51:04.200Z,36.37
2019-06-01T15:51:59.881Z,36.24
2019-06-01T15:52:59.618Z,36.33
2019-06-01T15:53:59.554Z,36.36
2019-06-01T15:55:00.444Z,36.36
2019-06-01T15:55:59.433Z,36.47
2019-06-01T15:57:00.617Z,36.28
2019-06-01T15:57:59.306Z,36.49
2019-06-01T15:59:00.189Z,36.43
2019-06-01T15:59:59.180Z,36.51
2019-06-01T16:00:59.268Z,36.46
2019-06-01T16:01:59.331Z,36.37
2019-06-01T16:02:59.058Z,36.40
2019-06-01T16:03:59.348Z,36.16
2019-06-01T16:04:59.288Z,36.00
2019-06-01T16:05:59.176Z,35.70
2019-06-01T16:06:59.248Z,35.44
2019-06-01T16:07:59.333Z,35.34
2019-06-01T16:08:59.359Z,35.19
2019-06-01T16:09:59.376Z,35.17
2019-06-01T16:11:02.775Z,35.08
2019-06-01T16:11:59.620Z,35.08
2019-06-01T16:12:59.577Z,34.97
2019-06-01T16:13:59.526Z,34.75
2019-06-01T16:14:58.231Z,34.47
2019-06-01T16:15:58.802Z,34.36
2019-06-01T16:16:58.330Z,34.21
2019-06-01T16:17:58.041Z,34.21
2019-06-01T16:19:02.876Z,34.02
2019-06-01T16:19:57.935Z,33.96
2019-06-01T16:20:58.072Z,33.77
2019-06-01T16:21:58.138Z,33.43
2019-06-01T16:22:58.092Z,33.15
2019-06-01T16:23:58.281Z,33.04
2019-06-01T16:24:58.133Z,32.87
2019-06-01T16:26:07.248Z,32.73
2019-06-01T16:26:58.218Z,32.65
2019-06-01T16:27:58.643Z,32.56
2019-06-01T16:28:58.442Z,32.40
2019-06-01T16:29:57.255Z,32.43
2019-06-01T16:30:58.444Z,32.27
2019-06-01T16:31:58.575Z,32.30
2019-06-01T16:32:57.061Z,32.15
2019-06-01T16:33:56.997Z,32.01
2019-06-01T16:34:56.934Z,31.85
2019-06-01T16:35:56.986Z,31.73
2019-06-01T16:36:56.844Z,31.59
2019-06-01T16:37:56.871Z,31.55
2019-06-01T16:39:02.756Z,31.36
2019-06-01T16:40:02.747Z,31.24
2019-06-01T16:41:05.449Z,31.15
2019-06-01T16:43:01.591Z,31.00
2019-06-01T16:44:01.772Z,30.87
2019-06-01T16:45:01.682Z,30.70
2019-06-01T16:46:02.071Z,30.55
2019-06-01T16:47:02.341Z,30.54
2019-06-01T16:48:01.609Z,30.39
2019-06-01T16:49:01.514Z,30.31
2019-06-01T16:50:01.706Z,30.13
2019-06-01T16:51:00.323Z,30.16
2019-06-01T16:52:01.310Z,30.05
2019-06-01T16:53:00.286Z,29.97
2019-06-01T16:54:00.115Z,29.88
2019-06-01T16:55:00.491Z,29.82
2019-06-01T16:55:59.982Z,29.78
2019-06-01T16:56:59.913Z,29.86
2019-06-01T16:58:01.165Z,29.71
2019-06-01T16:59:00.179Z,29.71
2019-06-01T17:00:00.618Z,29.69
2019-06-01T17:01:00.447Z,29.60
2019-06-01T17:02:00.990Z,29.57
2019-06-01T17:03:00.595Z,29.53
2019-06-01T17:04:00.562Z,29.50
2019-06-01T17:05:00.440Z,29.49
2019-06-01T17:06:00.522Z,29.47
2019-06-01T17:06:59.246Z,29.56
2019-06-01T17:07:59.176Z,29.50
2019-06-01T17:08:59.108Z,29.47
2019-06-01T17:10:15.242Z,29.34
2019-06-01T17:10:58.980Z,29.38
2019-06-01T17:11:58.912Z,29.27
2019-06-01T17:13:00.235Z,29.23
2019-06-01T17:13:58.776Z,29.14
2019-06-01T17:14:58.913Z,29.10
2019-06-01T17:15:58.967Z,28.96
2019-06-01T17:16:59.004Z,28.94
2019-06-01T17:18:02.953Z,28.86
2019-06-01T17:18:58.979Z,28.82
2019-06-01T17:19:58.987Z,28.79
2019-06-01T17:20:59.185Z,28.84
2019-06-01T17:21:59.311Z,28.78
2019-06-01T17:22:59.468Z,28.75
2019-06-01T17:23:58.102Z,28.67
2019-06-01T17:24:58.033Z,28.67
2019-06-01T17:25:58.370Z,28.57
2019-06-01T17:26:57.911Z,28.62
2019-06-01T17:27:58.077Z,28.45
2019-06-01T17:28:58.026Z,28.54
2019-06-01T17:29:58.089Z,28.59
2019-06-01T17:30:58.396Z,28.54
2019-06-01T17:32:14.919Z,28.44
2019-06-01T17:32:58.190Z,28.33
2019-06-01T17:33:58.346Z,28.35
2019-06-01T17:34:58.544Z,28.27
2019-06-01T17:35:58.548Z,28.25
2019-06-01T17:36:58.287Z,28.23
2019-06-01T17:37:57.146Z,28.33
2019-06-01T17:38:57.084Z,28.22
2019-06-01T17:39:57.016Z,28.19
2019-06-01T17:40:56.943Z,28.20
2019-06-01T17:41:56.884Z,28.19
2019-06-01T17:42:56.821Z,28.14
2019-06-01T17:43:56.803Z,28.20
2019-06-01T17:44:56.678Z,28.10
2019-06-01T17:45:56.609Z,28.17
2019-06-01T17:46:56.542Z,28.23
2019-06-01T17:47:56.469Z,28.19
2019-06-01T17:48:56.407Z,28.10
2019-06-01T17:49:56.342Z,28.11
2019-06-01T17:50:56.278Z,28.00
2019-06-01T17:51:56.201Z,27.95
2019-06-01T17:52:56.134Z,27.96
2019-06-01T17:53:56.060Z,27.95
2019-06-01T17:54:55.997Z,27.96
2019-06-01T17:55:55.925Z,27.92
2019-06-01T17:56:55.889Z,27.89
2019-06-01T17:57:55.791Z,27.86
2019-06-01T17:58:55.728Z,27.71
2019-06-01T17:59:55.660Z,27.83
2019-06-01T18:00:55.592Z,27.78
2019-06-01T18:01:55.527Z,27.74
2019-06-01T18:02:55.448Z,27.71
2019-06-01T18:03:55.384Z,27.67
2019-06-01T18:04:55.313Z,27.73
2019-06-01T18:05:55.249Z,27.71
2019-06-01T18:06:55.180Z,27.71
2019-06-01T18:07:55.113Z,27.73
2019-06-01T18:08:55.037Z,27.75
2019-06-01T18:09:54.976Z,27.73
2019-06-01T18:10:55.245Z,27.71
2019-06-01T18:11:54.837Z,27.70
2019-06-01T18:12:54.812Z,27.67
2019-06-01T18:13:54.699Z,27.59
2019-06-01T18:14:54.630Z,27.52
2019-06-01T18:15:54.564Z,27.54
2019-06-01T18:16:54.493Z,27.51
2019-06-01T18:17:54.421Z,27.45
2019-06-01T18:18:54.356Z,27.39
2019-06-01T18:19:54.290Z,27.36
2019-06-01T18:20:54.296Z,27.39
2019-06-01T18:21:54.156Z,27.33
2019-06-01T18:22:54.082Z,27.30
2019-06-01T18:23:54.011Z,27.29
2019-06-01T18:24:53.943Z,27.22
2019-06-01T18:25:53.876Z,27.15
2019-06-01T18:26:53.802Z,27.12
2019-06-01T18:27:53.736Z,27.05
2019-06-01T18:28:53.666Z,26.95
2019-06-01T18:29:53.601Z,27.00
2019-06-01T18:30:53.532Z,26.96
2019-06-01T18:31:53.474Z,26.90
2019-06-01T18:32:53.392Z,26.85
2019-06-01T18:33:53.802Z,26.84
2019-06-01T18:34:53.251Z,26.84
2019-06-01T18:35:53.184Z,26.77
2019-06-01T18:36:53.113Z,26.70
2019-06-01T18:37:53.045Z,26.74
2019-06-01T18:38:52.980Z,26.59
2019-06-01T18:39:52.906Z,26.59
2019-06-01T18:41:08.399Z,26.51
2019-06-01T18:41:52.764Z,26.53
2019-06-01T18:42:52.702Z,26.55
2019-06-01T18:43:52.625Z,26.43
2019-06-01T18:44:52.558Z,26.26
2019-06-01T18:45:52.489Z,26.29
2019-06-01T18:46:52.417Z,26.23
2019-06-01T18:47:52.349Z,26.19
2019-06-01T18:48:52.276Z,26.13
2019-06-01T18:49:52.208Z,26.09
2019-06-01T18:50:52.141Z,26.03
2019-06-01T18:51:52.065Z,26.10
2019-06-01T18:52:52.013Z,25.99
2019-06-01T18:53:51.928Z,25.98
2019-06-01T18:54:51.866Z,25.95
2019-06-01T18:55:51.785Z,25.91
2019-06-01T18:57:00.500Z,25.90
2019-06-01T18:57:51.646Z,25.84
2019-06-01T18:58:51.581Z,25.81
2019-06-01T18:59:51.506Z,25.73
2019-06-01T19:00:51.435Z,25.72
2019-06-01T19:01:51.366Z,25.69
2019-06-01T19:02:51.331Z,25.65
2019-06-01T19:03:51.222Z,25.62
2019-06-01T19:04:51.154Z,25.59
2019-06-01T19:05:51.081Z,25.47
2019-06-01T19:06:51.015Z,25.48
2019-06-01T19:07:50.942Z,25.48
2019-06-01T19:08:50.867Z,25.50
2019-06-01T19:09:50.831Z,25.53
2019-06-01T19:10:51.029Z,25.41
2019-06-01T19:11:50.662Z,25.40
2019-06-01T19:12:50.592Z,25.41
2019-06-01T19:13:50.520Z,25.28
2019-06-01T19:14:50.446Z,25.31
2019-06-01T19:15:50.377Z,25.25
2019-06-01T19:16:50.308Z,25.32
2019-06-01T19:17:50.238Z,25.29
2019-06-01T19:18:50.164Z,25.28
2019-06-01T19:19:50.092Z,25.21
2019-06-01T19:20:50.020Z,25.17
2019-06-01T19:21:49.947Z,25.14
2019-06-01T19:22:49.883Z,25.22
2019-06-01T19:23:49.806Z,25.10
2019-06-01T19:24:49.736Z,25.08
2019-06-01T19:25:49.662Z,25.10
2019-06-01T19:26:49.594Z,25.06
2019-06-01T19:27:49.537Z,25.06
2019-06-01T19:28:49.449Z,25.01
2019-06-01T19:29:49.388Z,25.01
2019-06-01T19:30:49.312Z,24.99
2019-06-01T19:31:49.238Z,25.07
2019-06-01T19:32:49.163Z,24.98
2019-06-01T19:33:49.094Z,24.88
2019-06-01T19:34:49.027Z,24.80
2019-06-01T19:35:48.956Z,24.73
2019-06-01T19:36:48.883Z,24.63
2019-06-01T19:37:48.810Z,24.63
2019-06-01T19:38:48.739Z,24.57
2019-06-01T19:39:48.669Z,24.55
2019-06-01T19:40:48.590Z,24.47
2019-06-01T19:41:48.518Z,24.36
2019-06-01T19:42:48.449Z,24.43
2019-06-01T19:43:48.376Z,24.32
2019-06-01T19:44:48.319Z,24.24
2019-06-01T19:45:48.239Z,24.29
2019-06-01T19:46:48.161Z,24.18
2019-06-01T19:47:48.093Z,24.16
2019-06-01T19:48:48.024Z,24.21
2019-06-01T19:49:47.952Z,24.11
2019-06-01T19:50:47.879Z,24.03
2019-06-01T19:51:47.815Z,24.14
2019-06-01T19:52:47.732Z,24.17
2019-06-01T19:53:47.664Z,24.10
2019-06-01T19:54:47.590Z,24.23
2019-06-01T19:55:47.517Z,24.16
2019-06-01T19:56:47.453Z,24.05
2019-06-01T19:57:47.373Z,23.99
2019-06-01T19:58:47.300Z,23.98
2019-06-01T19:59:47.251Z,24.03
2019-06-01T20:00:47.157Z,24.01
2019-06-01T20:01:47.086Z,23.98
2019-06-01T20:02:47.014Z,23.99
2019-06-01T20:03:46.940Z,24.01
2019-06-01T20:04:46.867Z,24.01
2019-06-01T20:05:46.798Z,23.98
2019-06-01T20:06:46.725Z,23.93
2019-06-01T20:07:46.653Z,23.84
2019-06-01T20:08:46.574Z,23.86
2019-06-01T20:09:46.507Z,23.83
2019-06-01T20:10:46.434Z,23.86
2019-06-01T20:12:01.023Z,23.68
2019-06-01T20:12:46.292Z,23.59
2019-06-01T20:13:46.217Z,23.54
2019-06-01T20:14:46.144Z,23.56
2019-06-01T20:15:46.075Z,23.46
2019-06-01T20:16:46.000Z,23.59
2019-06-01T20:17:45.928Z,23.55
2019-06-01T20:18:45.853Z,23.48
2019-06-01T20:19:45.782Z,23.37
2019-06-01T20:20:45.710Z,23.34
2019-06-01T20:21:45.637Z,23.37
2019-06-01T20:22:45.567Z,23.36
2019-06-01T20:23:45.489Z,23.39
2019-06-01T20:24:45.417Z,23.37
2019-06-01T20:25:45.348Z,23.23
2019-06-01T20:26:49.174Z,23.21
2019-06-01T20:27:45.200Z,22.99
2019-06-01T20:28:45.129Z,22.83
2019-06-01T20:29:45.055Z,22.84
2019-06-01T20:30:44.983Z,22.73
2019-06-01T20:31:44.912Z,22.81
2019-06-01T20:32:44.838Z,22.76
2019-06-01T20:33:44.764Z,22.78
2019-06-01T20:34:44.693Z,22.78
2019-06-01T20:35:44.616Z,22.91
2019-06-01T20:36:44.545Z,22.83
2019-06-01T20:37:44.472Z,22.85
2019-06-01T20:38:44.399Z,22.84
2019-06-01T20:39:44.324Z,22.91
2019-06-01T20:40:44.251Z,22.96
2019-06-01T20:41:44.177Z,22.96
2019-06-01T20:42:44.107Z,22.98
2019-06-01T20:43:44.034Z,22.91
2019-06-01T20:44:43.961Z,22.93
2019-06-01T20:45:43.896Z,22.96
2019-06-01T20:46:43.816Z,22.99
2019-06-01T20:47:43.741Z,22.96
2019-06-01T20:48:43.671Z,22.99
2019-06-01T20:49:43.595Z,22.88
2019-06-01T20:50:43.523Z,22.98
2019-06-01T20:51:43.450Z,22.91
2019-06-01T20:52:43.373Z,22.88
2019-06-01T20:53:43.308Z,22.83
2019-06-01T20:54:43.232Z,22.78
2019-06-01T20:55:43.160Z,22.73
2019-06-01T20:56:43.086Z,22.68
2019-06-01T20:57:43.010Z,22.70
2019-06-01T20:58:42.935Z,22.75
2019-06-01T20:59:42.864Z,22.70
2019-06-01T21:00:42.788Z,22.69
2019-06-01T21:01:42.716Z,22.70
2019-06-01T21:02:42.638Z,22.72
2019-06-01T21:03:42.567Z,22.66
2019-06-01T21:04:42.498Z,22.76
2019-06-01T21:05:42.423Z,22.68
2019-06-01T21:06:42.349Z,22.69
2019-06-01T21:07:42.281Z,22.68
2019-06-01T21:08:42.206Z,22.60
2019-06-01T21:09:42.130Z,22.53
2019-06-01T21:10:42.056Z,22.39
2019-06-01T21:11:41.982Z,22.36
2019-06-01T21:12:45.491Z,22.26
2019-06-01T21:13:41.838Z,22.29
2019-06-01T21:14:41.764Z,22.29
2019-06-01T21:15:41.689Z,22.29
2019-06-01T21:16:41.617Z,22.23
2019-06-01T21:17:41.541Z,22.20
2019-06-01T21:18:41.470Z,22.13
2019-06-01T21:19:41.398Z,22.26
2019-06-01T21:20:41.323Z,22.20
2019-06-01T21:21:41.245Z,22.20
2019-06-01T21:22:41.174Z,22.13
2019-06-01T21:23:41.101Z,22.17
2019-06-01T21:24:41.028Z,22.13
2019-06-01T21:25:40.955Z,21.99
2019-06-01T21:26:40.882Z,22.04
2019-06-01T21:27:40.810Z,21.93
2019-06-01T21:28:40.734Z,21.83
2019-06-01T21:29:40.665Z,21.82
2019-06-01T21:30:40.586Z,21.83
2019-06-01T21:31:40.514Z,21.82
2019-06-01T21:32:40.442Z,21.79
2019-06-01T21:33:40.367Z,21.85
2019-06-01T21:34:40.288Z,21.82
2019-06-01T21:35:40.216Z,21.99
2019-06-01T21:36:41.791Z,21.95
2019-06-01T21:37:40.069Z,21.93
2019-06-01T21:38:39.993Z,21.83
2019-06-01T21:39:39.921Z,21.93
2019-06-01T21:40:39.848Z,21.89
2019-06-01T21:41:39.774Z,21.80
2019-06-01T21:42:40.246Z,21.85
2019-06-01T21:43:39.629Z,21.77
2019-06-01T21:44:39.552Z,21.72
2019-06-01T21:45:39.480Z,21.75
2019-06-01T21:46:39.406Z,21.80
2019-06-01T21:47:39.333Z,21.76
2019-06-01T21:48:39.256Z,21.75
2019-06-01T21:49:39.182Z,21.73
2019-06-01T21:50:39.109Z,21.79
2019-06-01T21:51:39.034Z,21.72
2019-06-01T21:52:38.959Z,21.76
2019-06-01T21:53:38.885Z,21.79
2019-06-01T21:54:38.816Z,21.83
2019-06-01T21:55:38.739Z,21.80
2019-06-01T21:56:38.666Z,21.73
2019-06-01T21:57:38.592Z,21.72
2019-06-01T21:58:38.516Z,21.76
2019-06-01T21:59:38.444Z,21.79
2019-06-01T22:00:38.374Z,21.72
2019-06-01T22:01:38.295Z,21.66
2019-06-01T22:02:38.227Z,21.62
2019-06-01T22:03:38.147Z,21.54
2019-06-01T22:04:38.073Z,21.48
2019-06-01T22:05:38.008Z,21.40
2019-06-01T22:06:37.949Z,21.29
2019-06-01T22:07:37.853Z,21.37
2019-06-01T22:08:37.774Z,21.33
2019-06-01T22:09:37.699Z,21.30
2019-06-01T22:10:37.630Z,21.32
2019-06-01T22:11:37.555Z,21.42
2019-06-01T22:12:37.478Z,21.30
2019-06-01T22:13:37.408Z,21.27
2019-06-01T22:14:37.330Z,21.27
2019-06-01T22:15:37.256Z,21.20
2019-06-01T22:16:37.187Z,21.25
2019-06-01T22:17:37.110Z,21.25
2019-06-01T22:18:37.034Z,21.29
2019-06-01T22:19:36.960Z,21.30
2019-06-01T22:20:36.882Z,21.30
2019-06-01T22:21:36.811Z,21.24
2019-06-01T22:22:36.744Z,21.32
2019-06-01T22:23:36.663Z,21.36
2019-06-01T22:24:36.586Z,21.25
2019-06-01T22:25:36.513Z,21.25
2019-06-01T22:26:36.434Z,21.25
2019-06-01T22:27:36.367Z,21.24
2019-06-01T22:28:36.312Z,21.02
2019-06-01T22:29:36.215Z,20.92
2019-06-01T22:30:36.144Z,21.05
2019-06-01T22:31:36.066Z,20.87
2019-06-01T22:32:35.995Z,20.90
2019-06-01T22:33:35.920Z,20.81
2019-06-01T22:34:35.841Z,20.80
2019-06-01T22:35:35.769Z,20.92
2019-06-01T22:36:35.693Z,20.84
2019-06-01T22:37:35.621Z,20.84
2019-06-01T22:38:35.546Z,20.84
2019-06-01T22:39:35.473Z,20.88
2019-06-01T22:40:35.393Z,20.90
2019-06-01T22:41:35.322Z,20.88
2019-06-01T22:42:43.019Z,20.77
2019-06-01T22:44:39.566Z,20.80
2019-06-01T22:45:39.477Z,20.88
2019-06-01T22:46:39.405Z,20.77
2019-06-01T22:47:39.330Z,20.74
2019-06-01T22:48:39.252Z,20.72
2019-06-01T22:49:39.178Z,20.78
2019-06-01T22:50:39.103Z,20.80
2019-06-01T22:51:39.024Z,20.80
2019-06-01T22:52:38.954Z,20.78
2019-06-01T22:53:38.881Z,20.81
2019-06-01T22:54:38.799Z,20.82
2019-06-01T22:55:38.731Z,20.88
2019-06-01T22:56:38.661Z,20.88
2019-06-01T22:57:38.579Z,20.95